createdAt,value
2022-12-18T00:01:02.327Z,7.71
2022-12-18T00:02:04.894Z,6.69
2022-12-18T00:03:07.670Z,9.64
2022-12-18T00:04:11.747Z,6.01
2022-12-18T00:05:14.343Z,9.07
2022-12-18T00:06:16.973Z,7.21
2022-12-18T00:07:19.402Z,7.43
2022-12-18T00:08:21.829Z,4.78
2022-12-18T00:09:24.796Z,6.62
2022-12-18T00:10:28.083Z,6.15
2022-12-18T00:11:30.512Z,4.56
2022-12-18T00:12:32.959Z,6.80
2022-12-18T00:13:35.841Z,8.93
2022-12-18T00:14:38.766Z,7.13
2022-12-18T00:15:43.175Z,5.63
2022-12-18T00:16:45.880Z,6.24
2022-12-18T00:17:48.412Z,4.94
2022-12-18T00:18:50.963Z,5.45
2022-12-18T00:19:53.494Z,4.56
2022-12-18T00:20:56.260Z,6.79
2022-12-18T00:21:58.727Z,6.68
2022-12-18T00:23:01.279Z,3.14
2022-12-18T00:24:03.706Z,3.17
2022-12-18T00:25:06.132Z,4.86
2022-12-18T00:26:09.613Z,4.08
2022-12-18T00:27:12.117Z,3.09
2022-12-18T00:28:14.727Z,3.03
2022-12-18T00:29:17.496Z,2.53
2022-12-18T00:30:20.198Z,3.79
2022-12-18T00:31:23.139Z,3.59
2022-12-18T00:32:25.937Z,4.22
2022-12-18T00:33:28.525Z,3.37
2022-12-18T00:34:31.258Z,2.65
2022-12-18T00:35:33.715Z,2.17
2022-12-18T00:36:36.888Z,3.24
2022-12-18T00:37:39.355Z,2.31
2022-12-18T00:38:41.870Z,2.54
2022-12-18T00:39:44.414Z,3.49
2022-12-18T00:40:47.402Z,2.38
2022-12-18T00:41:50.096Z,3.03
2022-12-18T00:42:52.707Z,3.48
2022-12-18T00:43:55.243Z,2.70
2022-12-18T00:44:57.811Z,3.49
2022-12-18T00:46:00.420Z,3.87
2022-12-18T00:47:03.329Z,3.81
2022-12-18T00:48:05.869Z,3.55
2022-12-18T00:49:08.396Z,2.59
2022-12-18T00:50:11.232Z,3.92
2022-12-18T00:51:13.660Z,4.31
2022-12-18T00:52:16.131Z,4.33
2022-12-18T00:53:18.559Z,4.08
2022-12-18T00:54:20.986Z,3.73
2022-12-18T00:55:23.507Z,4.13
2022-12-18T00:56:26.165Z,5.21
2022-12-18T00:57:29.064Z,3.24
2022-12-18T00:58:31.902Z,4.02
2022-12-18T00:59:34.438Z,3.04
2022-12-18T01:00:37.142Z,4.42
2022-12-18T01:01:40.183Z,4.41
2022-12-18T01:02:43.208Z,4.74
2022-12-18T01:03:45.974Z,3.71
2022-12-18T01:04:48.398Z,3.35
2022-12-18T01:05:50.825Z,3.52
2022-12-18T01:06:53.600Z,3.10
2022-12-18T01:07:56.175Z,3.19
2022-12-18T01:08:58.598Z,3.01
2022-12-18T01:10:01.032Z,2.14
2022-12-18T01:11:03.469Z,1.93
2022-12-18T01:12:06.062Z,1.45
2022-12-18T01:13:08.642Z,2.77
2022-12-18T01:14:11.405Z,1.75
2022-12-18T01:15:13.870Z,1.90
2022-12-18T01:16:16.788Z,1.96
2022-12-18T01:17:19.437Z,2.49
2022-12-18T01:18:21.948Z,2.34
2022-12-18T01:19:24.470Z,2.63
2022-12-18T01:20:27.001Z,2.91
2022-12-18T01:21:29.432Z,2.80
2022-12-18T01:22:31.956Z,2.78
2022-12-18T01:23:34.409Z,2.57
2022-12-18T01:24:36.939Z,2.88
2022-12-18T01:25:39.369Z,1.85
2022-12-18T01:26:41.924Z,2.56
2022-12-18T01:27:44.358Z,2.89
2022-12-18T01:28:46.825Z,2.45
2022-12-18T01:29:49.266Z,1.87
2022-12-18T01:30:52.302Z,3.97
2022-12-18T01:31:54.867Z,2.60
2022-12-18T01:32:57.586Z,2.14
2022-12-18T01:34:00.092Z,2.14
2022-12-18T01:35:02.534Z,3.55
2022-12-18T01:36:05.269Z,3.94
2022-12-18T01:37:07.801Z,2.74
2022-12-18T01:38:10.266Z,2.74
2022-12-18T01:39:12.836Z,3.53
2022-12-18T01:40:15.983Z,4.31
2022-12-18T01:41:18.419Z,4.60
2022-12-18T01:42:20.958Z,3.16
2022-12-18T01:43:23.486Z,3.53
2022-12-18T01:44:25.974Z,3.01
2022-12-18T01:45:28.493Z,3.92
2022-12-18T01:46:31.350Z,4.26
2022-12-18T01:47:34.440Z,5.36
2022-12-18T01:48:36.909Z,4.85
2022-12-18T01:49:39.373Z,4.37
2022-12-18T01:50:42.111Z,5.57
2022-12-18T01:51:44.543Z,6.03
2022-12-18T01:52:47.183Z,4.40
2022-12-18T01:53:49.624Z,4.67
2022-12-18T01:54:52.190Z,5.20
2022-12-18T01:55:54.739Z,5.35
2022-12-18T01:56:57.473Z,5.92
2022-12-18T01:58:00.006Z,3.53
2022-12-18T01:59:02.484Z,3.74
2022-12-18T02:00:05.216Z,3.51
2022-12-18T02:01:07.749Z,2.77
2022-12-18T02:02:10.668Z,3.58
2022-12-18T02:03:13.705Z,4.01
2022-12-18T02:04:16.516Z,5.18
2022-12-18T02:05:18.998Z,4.88
2022-12-18T02:06:21.835Z,3.89
2022-12-18T02:07:24.282Z,5.79
2022-12-18T02:08:26.723Z,4.69
2022-12-18T02:09:29.283Z,3.41
2022-12-18T02:10:32.187Z,3.64
2022-12-18T02:11:34.625Z,4.77
2022-12-18T02:12:37.072Z,4.94
2022-12-18T02:13:40.101Z,3.51
2022-12-18T02:14:43.187Z,3.61
2022-12-18T02:15:45.778Z,4.99
2022-12-18T02:16:48.567Z,5.25
2022-12-18T02:17:51.136Z,5.47
2022-12-18T02:18:53.571Z,3.15
2022-12-18T02:19:56.001Z,5.06
2022-12-18T02:20:58.573Z,3.61
2022-12-18T02:22:01.097Z,5.17
2022-12-18T02:23:03.537Z,5.53
2022-12-18T02:24:06.070Z,4.25
2022-12-18T02:25:08.504Z,4.47
2022-12-18T02:26:11.979Z,3.27
2022-12-18T02:27:14.410Z,3.95
2022-12-18T02:28:16.944Z,5.45
2022-12-18T02:29:20.291Z,2.56
2022-12-18T02:30:22.923Z,2.48
2022-12-18T02:31:25.591Z,3.00
2022-12-18T02:32:28.051Z,3.14
2022-12-18T02:33:30.582Z,2.21
2022-12-18T02:34:33.236Z,3.13
2022-12-18T02:35:35.805Z,4.19
2022-12-18T02:36:38.354Z,3.43
2022-12-18T02:37:40.787Z,4.25
2022-12-18T02:38:43.217Z,2.80
2022-12-18T02:39:45.669Z,2.87
2022-12-18T02:40:48.321Z,3.17
2022-12-18T02:41:50.795Z,3.49
2022-12-18T02:42:53.225Z,2.87
2022-12-18T02:43:55.694Z,3.28
2022-12-18T02:44:58.253Z,3.92
2022-12-18T02:46:00.881Z,2.45
2022-12-18T02:47:03.811Z,4.78
2022-12-18T02:48:06.258Z,4.25
2022-12-18T02:49:08.690Z,4.27
2022-12-18T02:50:12.035Z,3.18
2022-12-18T02:51:14.568Z,3.89
2022-12-18T02:52:17.061Z,5.11
2022-12-18T02:53:19.625Z,3.74
2022-12-18T02:54:22.057Z,4.31
2022-12-18T02:55:24.490Z,4.04
2022-12-18T02:56:27.128Z,5.27
2022-12-18T02:57:29.643Z,4.80
2022-12-18T02:58:32.122Z,4.84
2022-12-18T02:59:34.550Z,3.49
2022-12-18T03:00:37.207Z,3.55
2022-12-18T03:01:39.846Z,4.83
2022-12-18T03:02:42.800Z,4.31
2022-12-18T03:03:45.565Z,4.19
2022-12-18T03:04:48.222Z,5.03
2022-12-18T03:05:50.857Z,5.57
2022-12-18T03:06:53.558Z,5.41
2022-12-18T03:07:56.142Z,4.77
2022-12-18T03:08:58.579Z,5.16
2022-12-18T03:10:01.110Z,4.25
2022-12-18T03:11:03.549Z,4.58
2022-12-18T03:12:06.107Z,3.07
2022-12-18T03:13:08.583Z,3.09
2022-12-18T03:14:12.550Z,5.19
2022-12-18T03:15:17.843Z,5.09
2022-12-18T03:16:19.860Z,3.13
2022-12-18T03:17:22.440Z,3.72
2022-12-18T03:18:25.018Z,3.45
2022-12-18T03:19:27.539Z,4.61
2022-12-18T03:20:30.373Z,2.58
2022-12-18T03:21:32.847Z,3.99
2022-12-18T03:22:35.393Z,3.41
2022-12-18T03:23:37.986Z,3.64
2022-12-18T03:24:40.792Z,4.43
2022-12-18T03:25:43.228Z,3.86
2022-12-18T03:26:46.061Z,3.33
2022-12-18T03:27:48.629Z,3.25
2022-12-18T03:28:51.222Z,3.84
2022-12-18T03:29:53.657Z,2.52
2022-12-18T03:30:56.665Z,4.34
2022-12-18T03:31:59.477Z,4.04
2022-12-18T03:33:02.040Z,3.02
2022-12-18T03:34:04.507Z,3.55
2022-12-18T03:35:06.952Z,4.34
2022-12-18T03:36:10.102Z,3.81
2022-12-18T03:37:12.632Z,4.57
2022-12-18T03:38:15.203Z,2.23
2022-12-18T03:39:17.684Z,2.59
2022-12-18T03:40:20.435Z,3.94
2022-12-18T03:41:22.872Z,3.96
2022-12-18T03:42:25.398Z,4.09
2022-12-18T03:43:27.920Z,3.45
2022-12-18T03:44:30.500Z,3.51
2022-12-18T03:45:33.029Z,2.98
2022-12-18T03:46:35.565Z,3.86
2022-12-18T03:47:38.046Z,3.19
2022-12-18T03:48:41.237Z,3.79
2022-12-18T03:49:43.981Z,3.42
2022-12-18T03:50:46.832Z,3.76
2022-12-18T03:51:49.273Z,3.72
2022-12-18T03:52:51.788Z,3.90
2022-12-18T03:53:54.234Z,2.79
2022-12-18T03:54:56.866Z,2.91
2022-12-18T03:56:00.207Z,3.59
2022-12-18T03:57:02.636Z,4.13
2022-12-18T03:58:05.074Z,3.19
2022-12-18T03:59:07.620Z,3.10
2022-12-18T04:00:10.958Z,3.81
2022-12-18T04:01:13.614Z,3.39
2022-12-18T04:02:16.295Z,3.01
2022-12-18T04:03:22.608Z,2.87
2022-12-18T04:04:23.257Z,2.15
2022-12-18T04:05:25.726Z,3.11
2022-12-18T04:06:28.477Z,2.71
2022-12-18T04:07:30.903Z,3.38
2022-12-18T04:08:33.380Z,3.43
2022-12-18T04:09:35.839Z,3.05
2022-12-18T04:10:38.713Z,2.74
2022-12-18T04:11:41.143Z,2.67
2022-12-18T04:12:43.572Z,3.23
2022-12-18T04:13:46.354Z,2.06
2022-12-18T04:14:48.914Z,2.26
2022-12-18T04:15:51.465Z,2.43
2022-12-18T04:16:54.556Z,2.64
2022-12-18T04:17:56.982Z,1.87
2022-12-18T04:18:59.407Z,1.90
2022-12-18T04:20:01.841Z,2.09
2022-12-18T04:21:04.449Z,1.83
2022-12-18T04:22:06.936Z,2.46
2022-12-18T04:23:09.364Z,2.19
2022-12-18T04:24:11.798Z,1.79
2022-12-18T04:25:14.223Z,2.06
2022-12-18T04:26:16.990Z,1.86
2022-12-18T04:27:19.432Z,1.98
2022-12-18T04:28:21.862Z,1.49
2022-12-18T04:29:24.709Z,2.00
2022-12-18T04:30:27.642Z,1.80
2022-12-18T04:31:30.145Z,1.99
2022-12-18T04:32:32.665Z,2.01
2022-12-18T04:33:35.094Z,1.91
2022-12-18T04:34:37.558Z,1.34
2022-12-18T04:35:40.004Z,1.55
2022-12-18T04:36:42.774Z,1.84
2022-12-18T04:37:45.209Z,1.31
2022-12-18T04:38:47.676Z,1.43
2022-12-18T04:39:50.198Z,1.66
2022-12-18T04:40:52.878Z,1.99
2022-12-18T04:41:55.380Z,1.35
2022-12-18T04:42:57.861Z,1.31
2022-12-18T04:44:00.542Z,1.81
2022-12-18T04:45:03.032Z,1.77
2022-12-18T04:46:05.625Z,1.91
2022-12-18T04:47:08.252Z,1.88
2022-12-18T04:48:10.691Z,1.85
2022-12-18T04:49:13.619Z,1.55
2022-12-18T04:50:16.588Z,2.27
2022-12-18T04:51:24.633Z,2.23
2022-12-18T04:52:26.401Z,2.65
2022-12-18T04:53:28.866Z,2.07
2022-12-18T04:54:31.303Z,3.14
2022-12-18T04:55:33.834Z,1.45
2022-12-18T04:56:36.912Z,1.39
2022-12-18T04:57:39.527Z,1.23
2022-12-18T04:58:42.058Z,1.66
2022-12-18T04:59:44.649Z,1.45
2022-12-18T05:00:47.584Z,1.82
2022-12-18T05:01:50.149Z,1.84
2022-12-18T05:02:53.232Z,2.09
2022-12-18T05:03:56.558Z,1.71
2022-12-18T05:04:59.141Z,2.11
2022-12-18T05:06:01.677Z,2.27
2022-12-18T05:07:04.211Z,2.21
2022-12-18T05:08:06.887Z,2.12
2022-12-18T05:09:09.430Z,2.03
2022-12-18T05:10:12.811Z,2.38
2022-12-18T05:11:15.312Z,2.17
2022-12-18T05:12:17.741Z,2.33
2022-12-18T05:13:20.213Z,1.99
2022-12-18T05:14:22.793Z,2.31
2022-12-18T05:15:25.235Z,1.99
2022-12-18T05:16:27.960Z,1.78
2022-12-18T05:17:30.522Z,1.53
2022-12-18T05:18:33.091Z,1.77
2022-12-18T05:19:35.538Z,1.83
2022-12-18T05:20:38.270Z,1.89
2022-12-18T05:21:40.762Z,2.39
2022-12-18T05:22:43.334Z,1.67
2022-12-18T05:23:45.804Z,2.77
2022-12-18T05:24:48.356Z,3.46
2022-12-18T05:25:51.026Z,1.70
2022-12-18T05:26:53.662Z,1.85
2022-12-18T05:27:56.191Z,1.72
2022-12-18T05:28:59.068Z,1.91
2022-12-18T05:30:01.600Z,1.29
2022-12-18T05:31:04.110Z,1.30
2022-12-18T05:32:06.684Z,2.21
2022-12-18T05:33:09.118Z,2.31
2022-12-18T05:34:11.694Z,2.51
2022-12-18T05:35:15.339Z,2.09
2022-12-18T05:36:17.964Z,2.68
2022-12-18T05:37:20.392Z,1.75
2022-12-18T05:38:22.820Z,2.35
2022-12-18T05:39:25.291Z,2.69
2022-12-18T05:40:28.025Z,1.95
2022-12-18T05:41:31.058Z,2.31
2022-12-18T05:42:33.608Z,2.79
2022-12-18T05:43:36.047Z,2.63
2022-12-18T05:44:38.952Z,2.37
2022-12-18T05:45:41.767Z,1.87
2022-12-18T05:46:44.463Z,2.95
2022-12-18T05:47:46.994Z,2.93
2022-12-18T05:48:49.509Z,3.26
2022-12-18T05:49:52.058Z,2.80
2022-12-18T05:50:54.592Z,3.07
2022-12-18T05:51:57.145Z,2.67
2022-12-18T05:52:59.576Z,1.33
2022-12-18T05:54:02.012Z,1.53
2022-12-18T05:55:04.597Z,2.33
2022-12-18T05:56:07.750Z,1.99
2022-12-18T05:57:10.491Z,2.22
2022-12-18T05:58:12.945Z,2.06
2022-12-18T05:59:15.419Z,2.69
2022-12-18T06:00:18.204Z,2.19
2022-12-18T06:01:20.826Z,2.08
2022-12-18T06:02:23.685Z,1.17
2022-12-18T06:03:30.761Z,1.91
2022-12-18T06:04:30.942Z,2.08
2022-12-18T06:05:36.577Z,1.76
2022-12-18T06:06:39.489Z,2.11
2022-12-18T06:07:41.963Z,2.17
2022-12-18T06:08:46.837Z,1.95
2022-12-18T06:09:48.917Z,2.07
2022-12-18T06:10:51.977Z,1.65
2022-12-18T06:11:54.420Z,1.19
2022-12-18T06:12:56.969Z,1.35
2022-12-18T06:14:00.246Z,0.91
2022-12-18T06:15:03.544Z,1.32
2022-12-18T06:16:06.326Z,1.34
2022-12-18T06:17:09.197Z,1.31
2022-12-18T06:18:11.741Z,1.29
2022-12-18T06:19:14.212Z,1.27
2022-12-18T06:20:17.190Z,1.52
2022-12-18T06:21:20.181Z,1.37
2022-12-18T06:22:22.732Z,1.79
2022-12-18T06:23:25.229Z,1.31
2022-12-18T06:24:28.103Z,1.20
2022-12-18T06:25:30.575Z,1.51
2022-12-18T06:26:33.557Z,1.71
2022-12-18T06:27:36.089Z,2.34
2022-12-18T06:28:38.520Z,1.96
2022-12-18T06:29:40.981Z,2.22
2022-12-18T06:30:43.875Z,2.29
2022-12-18T06:31:46.448Z,1.87
2022-12-18T06:32:54.714Z,1.66
2022-12-18T06:33:53.578Z,2.49
2022-12-18T06:34:56.105Z,2.83
2022-12-18T06:36:01.233Z,1.63
2022-12-18T06:37:03.319Z,2.20
2022-12-18T06:38:05.751Z,2.36
2022-12-18T06:39:08.180Z,1.77
2022-12-18T06:40:12.578Z,1.54
2022-12-18T06:41:15.104Z,2.19
2022-12-18T06:42:17.577Z,1.53
2022-12-18T06:43:20.006Z,2.25
2022-12-18T06:44:22.539Z,2.59
2022-12-18T06:45:25.010Z,2.27
2022-12-18T06:46:27.607Z,2.56
2022-12-18T06:47:30.266Z,1.63
2022-12-18T06:48:32.711Z,2.38
2022-12-18T06:49:35.186Z,2.03
2022-12-18T06:50:37.924Z,1.58
2022-12-18T06:51:40.355Z,2.16
2022-12-18T06:52:42.936Z,2.18
2022-12-18T06:53:45.670Z,2.06
2022-12-18T06:54:48.104Z,1.63
2022-12-18T06:55:50.584Z,2.07
2022-12-18T06:56:53.331Z,1.44
2022-12-18T06:57:55.836Z,2.00
2022-12-18T06:58:58.272Z,2.07
2022-12-18T07:00:00.749Z,2.27
2022-12-18T07:01:03.238Z,2.15
2022-12-18T07:02:06.270Z,1.42
2022-12-18T07:03:09.131Z,1.07
2022-12-18T07:04:11.681Z,1.55
2022-12-18T07:05:14.158Z,2.15
2022-12-18T07:06:18.033Z,1.79
2022-12-18T07:07:20.479Z,1.25
2022-12-18T07:08:22.970Z,1.87
2022-12-18T07:09:25.450Z,1.84
2022-12-18T07:10:29.310Z,2.10
2022-12-18T07:11:31.797Z,1.71
2022-12-18T07:12:34.253Z,1.94
2022-12-18T07:13:36.960Z,1.64
2022-12-18T07:14:39.659Z,2.76
2022-12-18T07:15:42.099Z,1.89
2022-12-18T07:16:45.988Z,2.28
2022-12-18T07:17:48.599Z,3.10
2022-12-18T07:18:51.222Z,2.81
2022-12-18T07:19:53.859Z,2.21
2022-12-18T07:20:56.595Z,2.97
2022-12-18T07:21:59.027Z,2.49
2022-12-18T07:23:01.482Z,1.52
2022-12-18T07:24:03.958Z,1.97
2022-12-18T07:25:06.896Z,2.04
2022-12-18T07:26:11.159Z,1.59
2022-12-18T07:27:13.619Z,1.91
2022-12-18T07:28:17.644Z,1.88
2022-12-18T07:29:20.455Z,2.06
2022-12-18T07:30:23.098Z,2.37
2022-12-18T07:31:25.565Z,2.69
2022-12-18T07:32:28.378Z,2.19
2022-12-18T07:33:30.820Z,1.92
2022-12-18T07:34:33.805Z,1.12
2022-12-18T07:35:36.240Z,2.46
2022-12-18T07:36:38.788Z,1.38
2022-12-18T07:37:41.330Z,2.21
2022-12-18T07:38:43.877Z,2.23
2022-12-18T07:39:46.445Z,2.25
2022-12-18T07:40:50.998Z,2.00
2022-12-18T07:41:53.448Z,1.92
2022-12-18T07:42:55.964Z,2.62
2022-12-18T07:43:58.428Z,2.11
2022-12-18T07:45:01.284Z,2.36
2022-12-18T07:46:04.051Z,2.03
2022-12-18T07:47:11.731Z,2.59
2022-12-18T07:48:11.248Z,2.31
2022-12-18T07:49:13.819Z,2.17
2022-12-18T07:50:17.212Z,2.19
2022-12-18T07:51:19.714Z,2.43
2022-12-18T07:52:25.971Z,2.47
2022-12-18T07:53:26.876Z,2.04
2022-12-18T07:54:29.446Z,3.95
2022-12-18T07:56:00.063Z,1.59
2022-12-18T07:56:36.599Z,2.22
2022-12-18T07:57:50.745Z,2.23
2022-12-18T07:58:43.395Z,2.72
2022-12-18T07:59:45.850Z,2.18
2022-12-18T08:00:48.551Z,1.43
2022-12-18T08:01:51.213Z,1.91
2022-12-18T08:02:53.965Z,2.47
2022-12-18T08:03:56.620Z,2.02
2022-12-18T08:04:59.195Z,1.32
2022-12-18T08:06:01.729Z,1.95
2022-12-18T08:07:04.281Z,1.71
2022-12-18T08:08:06.723Z,2.01
2022-12-18T08:09:09.261Z,2.68
2022-12-18T08:10:12.505Z,2.26
2022-12-18T08:11:15.058Z,2.38
2022-12-18T08:12:17.493Z,2.26
2022-12-18T08:13:20.021Z,2.51
2022-12-18T08:14:22.450Z,1.52
2022-12-18T08:15:24.946Z,2.48
2022-12-18T08:16:27.973Z,2.41
2022-12-18T08:17:30.543Z,2.29
2022-12-18T08:18:33.073Z,2.40
2022-12-18T08:19:35.507Z,2.15
2022-12-18T08:20:38.246Z,1.91
2022-12-18T08:21:40.727Z,1.91
2022-12-18T08:22:43.605Z,2.62
2022-12-18T08:23:46.484Z,1.61
2022-12-18T08:24:49.207Z,1.91
2022-12-18T08:25:51.775Z,2.64
2022-12-18T08:27:20.829Z,1.81
2022-12-18T08:27:59.257Z,2.31
2022-12-18T08:29:01.822Z,2.21
2022-12-18T08:30:04.749Z,2.98
2022-12-18T08:31:08.359Z,1.91
2022-12-18T08:32:11.079Z,3.31
2022-12-18T08:33:13.927Z,4.36
2022-12-18T08:34:16.378Z,3.52
2022-12-18T08:35:18.937Z,2.61
2022-12-18T08:36:21.661Z,2.45
2022-12-18T08:37:24.219Z,2.31
2022-12-18T08:38:26.649Z,2.78
2022-12-18T08:39:29.085Z,2.87
2022-12-18T08:40:31.708Z,2.61
2022-12-18T08:41:34.237Z,3.81
2022-12-18T08:42:36.837Z,2.36
2022-12-18T08:43:39.841Z,3.33
2022-12-18T08:44:42.719Z,4.24
2022-12-18T08:45:45.174Z,2.61
2022-12-18T08:46:48.081Z,2.61
2022-12-18T08:47:50.785Z,3.17
2022-12-18T08:48:53.214Z,3.05
2022-12-18T08:49:55.653Z,3.85
2022-12-18T08:50:58.394Z,2.72
2022-12-18T08:52:00.825Z,3.26
2022-12-18T08:53:03.298Z,4.35
2022-12-18T08:54:06.575Z,3.18
2022-12-18T08:55:09.378Z,2.57
2022-12-18T08:56:13.322Z,3.56
2022-12-18T08:57:15.776Z,3.30
2022-12-18T08:58:18.333Z,2.57
2022-12-18T08:59:20.927Z,2.85
2022-12-18T09:00:23.685Z,2.67
2022-12-18T09:01:26.229Z,3.59
2022-12-18T09:02:29.146Z,2.91
2022-12-18T09:03:32.120Z,2.74
2022-12-18T09:04:34.959Z,4.80
2022-12-18T09:05:37.385Z,2.85
2022-12-18T09:06:40.122Z,3.93
2022-12-18T09:07:42.842Z,3.07
2022-12-18T09:08:45.522Z,4.55
2022-12-18T09:09:48.289Z,2.85
2022-12-18T09:10:51.295Z,2.75
2022-12-18T09:11:53.763Z,2.92
2022-12-18T09:12:56.214Z,3.88
2022-12-18T09:13:58.689Z,3.39
2022-12-18T09:15:01.460Z,4.17
2022-12-18T09:16:03.987Z,2.53
2022-12-18T09:17:06.498Z,3.79
2022-12-18T09:18:09.053Z,2.92
2022-12-18T09:19:11.787Z,4.09
2022-12-18T09:20:14.320Z,2.98
2022-12-18T09:21:17.664Z,3.42
2022-12-18T09:22:20.190Z,3.52
2022-12-18T09:23:22.630Z,2.34
2022-12-18T09:24:25.183Z,2.67
2022-12-18T09:25:27.609Z,2.80
2022-12-18T09:26:30.364Z,3.85
2022-12-18T09:27:32.950Z,2.60
2022-12-18T09:28:35.921Z,5.07
2022-12-18T09:29:38.428Z,4.19
2022-12-18T09:30:41.146Z,4.43
2022-12-18T09:31:44.245Z,3.89
2022-12-18T09:32:46.806Z,4.59
2022-12-18T09:33:49.234Z,5.07
2022-12-18T09:34:51.812Z,5.65
2022-12-18T09:35:54.389Z,5.10
2022-12-18T09:36:57.185Z,3.26
2022-12-18T09:37:59.617Z,3.84
2022-12-18T09:39:06.422Z,5.39
2022-12-18T09:40:06.970Z,3.49
2022-12-18T09:41:09.534Z,5.34
2022-12-18T09:42:12.033Z,5.41
2022-12-18T09:43:14.463Z,5.45
2022-12-18T09:44:16.946Z,5.57
2022-12-18T09:45:19.734Z,5.67
2022-12-18T09:46:22.750Z,4.44
2022-12-18T09:47:25.316Z,4.14
2022-12-18T09:48:27.753Z,4.13
2022-12-18T09:49:30.182Z,5.69
2022-12-18T09:50:33.649Z,6.00
2022-12-18T09:51:36.147Z,6.17
2022-12-18T09:52:38.659Z,3.38
2022-12-18T09:53:41.266Z,4.83
2022-12-18T09:54:43.743Z,5.21
2022-12-18T09:55:46.221Z,5.93
2022-12-18T09:56:50.586Z,4.21
2022-12-18T09:57:53.107Z,6.51
2022-12-18T09:58:55.609Z,6.55
2022-12-18T09:59:58.068Z,6.13
2022-12-18T10:01:00.929Z,5.00
2022-12-18T10:02:03.597Z,5.97
2022-12-18T10:03:06.450Z,4.36
2022-12-18T10:04:09.254Z,4.99
2022-12-18T10:05:11.751Z,4.29
2022-12-18T10:06:14.685Z,6.25
2022-12-18T10:07:17.230Z,6.81
2022-12-18T10:08:19.705Z,4.75
2022-12-18T10:09:22.218Z,4.78
2022-12-18T10:10:25.005Z,5.85
2022-12-18T10:11:27.602Z,6.67
2022-12-18T10:12:30.033Z,4.37
2022-12-18T10:13:32.465Z,5.62
2022-12-18T10:14:35.007Z,7.65
2022-12-18T10:15:37.639Z,7.55
2022-12-18T10:16:41.499Z,7.16
2022-12-18T10:17:43.927Z,5.60
2022-12-18T10:18:46.373Z,7.06
2022-12-18T10:19:48.844Z,5.37
2022-12-18T10:20:52.867Z,4.05
2022-12-18T10:21:55.382Z,5.13
2022-12-18T10:22:57.819Z,6.63
2022-12-18T10:24:00.364Z,5.00
2022-12-18T10:25:02.912Z,6.07
2022-12-18T10:26:05.649Z,7.21
2022-12-18T10:27:08.214Z,6.99
2022-12-18T10:28:10.657Z,6.82
2022-12-18T10:29:13.203Z,6.69
2022-12-18T10:30:16.282Z,6.81
2022-12-18T10:31:18.768Z,6.94
2022-12-18T10:32:21.555Z,6.41
2022-12-18T10:33:24.019Z,6.37
2022-12-18T10:34:26.465Z,5.57
2022-12-18T10:35:28.996Z,6.79
2022-12-18T10:36:31.629Z,6.91
2022-12-18T10:37:34.138Z,5.58
2022-12-18T10:38:36.592Z,5.89
2022-12-18T10:39:39.105Z,5.82
2022-12-18T10:40:42.041Z,4.25
2022-12-18T10:41:44.483Z,7.09
2022-12-18T10:42:47.095Z,5.99
2022-12-18T10:43:49.566Z,6.74
2022-12-18T10:44:52.312Z,5.89
2022-12-18T10:45:54.824Z,4.74
2022-12-18T10:46:57.797Z,4.23
2022-12-18T10:48:00.335Z,6.05
2022-12-18T10:49:02.854Z,6.02
2022-12-18T10:50:05.499Z,6.24
2022-12-18T10:51:12.193Z,5.79
2022-12-18T10:52:12.418Z,5.08
2022-12-18T10:53:15.694Z,5.56
2022-12-18T10:54:18.175Z,6.21
2022-12-18T10:55:20.753Z,6.65
2022-12-18T10:56:25.198Z,6.68
2022-12-18T10:57:27.733Z,4.61
2022-12-18T10:58:30.304Z,5.31
2022-12-18T10:59:32.775Z,5.78
2022-12-18T11:00:35.619Z,6.49
2022-12-18T11:01:38.261Z,5.33
2022-12-18T11:02:41.047Z,5.93
2022-12-18T11:03:43.927Z,6.89
2022-12-18T11:04:46.511Z,7.39
2022-12-18T11:05:48.952Z,6.25
2022-12-18T11:06:51.562Z,6.89
2022-12-18T11:07:54.098Z,6.50
2022-12-18T11:08:56.579Z,8.96
2022-12-18T11:09:59.016Z,7.78
2022-12-18T11:11:01.545Z,7.43
2022-12-18T11:12:04.024Z,8.19
2022-12-18T11:13:06.529Z,7.90
2022-12-18T11:14:09.088Z,7.89
2022-12-18T11:15:11.519Z,6.31
2022-12-18T11:16:14.468Z,6.10
2022-12-18T11:17:25.741Z,7.24
2022-12-18T11:18:21.392Z,6.28
2022-12-18T11:19:23.962Z,6.55
2022-12-18T11:20:26.526Z,5.87
2022-12-18T11:21:29.060Z,7.22
2022-12-18T11:22:31.595Z,5.89
2022-12-18T11:23:34.146Z,6.51
2022-12-18T11:24:36.694Z,5.99
2022-12-18T11:25:39.237Z,6.29
2022-12-18T11:26:42.268Z,7.08
2022-12-18T11:27:44.803Z,6.06
2022-12-18T11:28:47.332Z,7.84
2022-12-18T11:29:49.804Z,5.06
2022-12-18T11:30:53.302Z,5.87
2022-12-18T11:31:56.008Z,6.35
2022-12-18T11:32:58.438Z,5.60
2022-12-18T11:35:05.562Z,6.28
2022-12-18T11:36:09.387Z,5.03
2022-12-18T11:37:11.937Z,7.49
2022-12-18T11:38:14.711Z,5.29
2022-12-18T11:39:17.221Z,6.38
2022-12-18T11:40:20.115Z,5.91
2022-12-18T11:41:22.548Z,5.48
2022-12-18T11:42:24.998Z,4.93
2022-12-18T11:43:27.965Z,4.74
2022-12-18T11:44:30.808Z,5.35
2022-12-18T11:45:33.384Z,7.33
2022-12-18T11:46:36.474Z,6.19
2022-12-18T11:47:38.984Z,4.75
2022-12-18T11:48:41.675Z,7.01
2022-12-18T11:49:44.687Z,7.82
2022-12-18T11:50:47.374Z,8.03
2022-12-18T11:51:49.891Z,6.16
2022-12-18T11:52:57.387Z,8.66
2022-12-18T11:53:56.682Z,9.35
2022-12-18T11:54:59.113Z,7.60
2022-12-18T11:56:02.024Z,6.78
2022-12-18T11:57:04.541Z,7.46
2022-12-18T11:58:07.000Z,7.87
2022-12-18T11:59:09.536Z,9.53
2022-12-18T12:00:12.588Z,7.42
2022-12-18T12:01:15.272Z,5.60
2022-12-18T12:02:18.012Z,8.64
2022-12-18T12:03:21.497Z,7.67
2022-12-18T12:04:24.629Z,9.92
2022-12-18T12:05:27.431Z,10.24
2022-12-18T12:06:30.212Z,10.18
2022-12-18T12:07:32.747Z,9.57
2022-12-18T12:08:35.190Z,8.78
2022-12-18T12:09:37.628Z,7.91
2022-12-18T12:10:40.512Z,8.04
2022-12-18T12:11:43.074Z,5.62
2022-12-18T12:12:48.759Z,7.35
2022-12-18T12:13:50.017Z,7.16
2022-12-18T12:14:52.800Z,5.75
2022-12-18T12:15:55.819Z,7.02
2022-12-18T12:16:58.672Z,5.26
2022-12-18T12:18:01.254Z,7.04
2022-12-18T12:19:03.793Z,9.18
2022-12-18T12:20:06.327Z,9.11
2022-12-18T12:21:09.684Z,6.28
2022-12-18T12:22:12.266Z,6.65
2022-12-18T12:23:14.739Z,7.47
2022-12-18T12:24:17.284Z,8.02
2022-12-18T12:25:19.717Z,5.95
2022-12-18T12:26:22.660Z,9.44
2022-12-18T12:27:25.224Z,7.37
2022-12-18T12:28:27.765Z,7.54
2022-12-18T12:29:30.297Z,5.65
2022-12-18T12:30:33.039Z,7.06
2022-12-18T12:31:35.514Z,6.30
2022-12-18T12:32:38.184Z,6.14
2022-12-18T12:33:40.972Z,10.45
2022-12-18T12:34:44.124Z,5.91
2022-12-18T12:35:46.607Z,7.83
2022-12-18T12:36:49.340Z,5.38
2022-12-18T12:37:51.836Z,7.61
2022-12-18T12:38:54.323Z,5.87
2022-12-18T12:39:56.759Z,7.69
2022-12-18T12:41:03.092Z,8.34
2022-12-18T12:42:04.042Z,6.83
2022-12-18T12:43:06.702Z,9.39
2022-12-18T12:44:09.673Z,9.13
2022-12-18T12:45:12.256Z,4.68
2022-12-18T12:46:15.252Z,6.79
2022-12-18T12:47:17.899Z,9.17
2022-12-18T12:48:20.573Z,7.21
2022-12-18T12:49:23.312Z,6.92
2022-12-18T12:50:26.249Z,5.90
2022-12-18T12:51:29.213Z,6.34
2022-12-18T12:52:31.785Z,6.29
2022-12-18T12:53:34.339Z,5.84
2022-12-18T12:54:37.199Z,6.51
2022-12-18T12:55:39.696Z,6.64
2022-12-18T12:56:43.152Z,7.79
2022-12-18T12:57:45.685Z,6.53
2022-12-18T12:58:48.363Z,7.77
2022-12-18T12:59:51.189Z,6.88
2022-12-18T13:00:54.544Z,6.39
2022-12-18T13:01:57.576Z,9.39
2022-12-18T13:03:00.461Z,7.08
2022-12-18T13:04:02.983Z,6.31
2022-12-18T13:05:05.914Z,10.91
2022-12-18T13:06:09.092Z,8.39
2022-12-18T13:07:13.266Z,6.37
2022-12-18T13:08:15.946Z,6.51
2022-12-18T13:09:21.128Z,7.08
2022-12-18T13:10:25.656Z,6.42
2022-12-18T13:11:28.318Z,7.45
2022-12-18T13:12:34.868Z,7.89
2022-12-18T13:13:35.528Z,8.01
2022-12-18T13:14:38.073Z,7.76
2022-12-18T13:15:41.008Z,7.13
2022-12-18T13:16:43.742Z,9.21
2022-12-18T13:17:46.216Z,7.89
2022-12-18T13:18:48.737Z,8.34
2022-12-18T13:19:51.419Z,10.07
2022-12-18T13:20:59.767Z,8.29
2022-12-18T13:21:58.389Z,6.32
2022-12-18T13:23:01.250Z,10.56
2022-12-18T13:24:03.765Z,7.38
2022-12-18T13:25:06.375Z,8.97
2022-12-18T13:26:10.225Z,8.15
2022-12-18T13:27:12.649Z,10.55
2022-12-18T13:28:15.147Z,9.98
2022-12-18T13:29:17.674Z,7.53
2022-12-18T13:30:20.848Z,7.74
2022-12-18T13:31:23.301Z,8.23
2022-12-18T13:32:25.735Z,9.31
2022-12-18T13:33:29.186Z,8.83
2022-12-18T13:34:32.749Z,9.61
2022-12-18T13:35:36.136Z,8.10
2022-12-18T13:36:38.979Z,6.43
2022-12-18T13:37:41.607Z,9.11
2022-12-18T13:38:44.359Z,7.46
2022-12-18T13:39:46.888Z,9.61
2022-12-18T13:40:50.686Z,9.22
2022-12-18T13:41:53.340Z,7.47
2022-12-18T13:42:55.914Z,5.94
2022-12-18T13:43:58.441Z,6.85
2022-12-18T13:45:01.040Z,5.52
2022-12-18T13:46:04.665Z,6.78
2022-12-18T13:47:07.217Z,7.26
2022-12-18T13:48:10.273Z,6.51
2022-12-18T13:49:13.326Z,7.51
2022-12-18T13:50:15.861Z,7.21
2022-12-18T13:51:19.852Z,7.09
2022-12-18T13:52:22.798Z,7.81
2022-12-18T13:53:25.808Z,7.03
2022-12-18T13:54:28.316Z,6.42
2022-12-18T13:55:30.903Z,8.60
2022-12-18T13:56:33.819Z,12.61